Terminal Aerodrome Forecast
Issued by NWS

Home | Current Version | Previous Version | Text Only | Print | Product List | Glossary On
Versions: 1 2 3 4 5 6 7 8 9 10 11 12 13 14
769
FTUS41 KBTV 200533
TAFMPV
TAF
KMPV 200533Z 2006/2106 29010G17KT P6SM OVC030
     FM201100 29010G19KT P6SM OVC035
     FM201700 29014G23KT P6SM SCT110
     FM202200 28009KT P6SM SCT045
     FM210100 25004KT P6SM SCT050=

USA.gov is the U.S. government's official web portal to all federal, state and local government web resources and services.